Time;durP1;ratioP1;P1;durP2;ratioP2;P2;SDS_P1;SDS_P2;PMS_P1;PMS_P2;Temp;Humidity;BMP_temperature;BMP_pressure;BME280_temperature;BME280_humidity;BME280_pressure;Samples;Min_cycle;Max_cycle;Signal;HPM_P1;HPM_P2
2023/08/13 00:01:51;;;;;;;9.40;3.70;;;;;;;18.74;49.77;100229.52;102779;1259;137865;-66
2023/08/13 00:04:18;;;;;;;7.70;4.20;;;;;;;18.75;49.88;100226.50;102774;1261;99506;-66
2023/08/13 00:06:45;;;;;;;9.90;4.80;;;;;;;18.74;49.79;100224.27;102834;1261;137708;-66
2023/08/13 00:09:12;;;;;;;11.50;4.20;;;;;;;18.73;49.91;100227.15;102913;1263;97879;-65
2023/08/13 00:11:39;;;;;;;9.60;4.30;;;;;;;18.70;50.11;100224.65;102938;1263;112048;-66
2023/08/13 00:14:06;;;;;;;6.60;4.00;;;;;;;18.68;50.26;100223.05;102970;1260;108139;-66
2023/08/13 00:16:34;;;;;;;7.40;4.00;;;;;;;18.66;50.19;100223.70;102947;1260;98263;-66
2023/08/13 00:19:01;;;;;;;10.20;4.20;;;;;;;18.65;50.31;100222.55;102816;1258;137645;-66
2023/08/13 00:21:28;;;;;;;8.20;3.90;;;;;;;18.62;50.32;100223.22;102907;1263;97816;-66
2023/08/13 00:23:55;;;;;;;8.20;4.00;;;;;;;18.61;50.33;100223.15;102826;1263;137891;-66
2023/08/13 00:26:22;;;;;;;7.40;4.10;;;;;;;18.59;50.35;100217.44;102893;1261;109584;-66
2023/08/13 00:28:49;;;;;;;12.30;4.50;;;;;;;18.58;50.64;100219.30;103236;1265;97679;-66
2023/08/13 00:31:17;;;;;;;9.20;4.40;;;;;;;18.56;50.80;100224.90;102095;1265;1002710;-65
2023/08/13 00:33:44;;;;;;;10.10;4.50;;;;;;;18.54;50.91;100220.09;102819;1261;97789;-66
2023/08/13 00:36:11;;;;;;;6.60;4.20;;;;;;;18.50;50.87;100219.62;102833;1263;138100;-65
2023/08/13 00:38:39;;;;;;;7.30;4.50;;;;;;;18.48;51.08;100220.49;102890;1261;107573;-66
2023/08/13 00:41:06;;;;;;;6.70;3.90;;;;;;;18.45;51.18;100221.52;102894;1261;98364;-65
2023/08/13 00:43:33;;;;;;;11.80;4.50;;;;;;;18.42;51.27;100222.06;102787;1263;138408;-65
2023/08/13 00:46:01;;;;;;;8.70;4.40;;;;;;;18.40;51.58;100227.46;102960;1263;97899;-65
2023/08/13 00:48:28;;;;;;;13.50;3.80;;;;;;;18.38;51.60;100229.91;104144;1261;138342;-65
2023/08/13 00:50:55;;;;;;;8.60;4.30;;;;;;;18.36;51.91;100227.95;104242;1263;108334;-66
2023/08/13 00:53:23;;;;;;;9.00;4.10;;;;;;;18.34;51.88;100229.29;104186;1266;96072;-65
2023/08/13 00:55:50;;;;;;;10.50;4.60;;;;;;;18.32;51.98;100224.16;104164;1259;138551;-66
2023/08/13 00:58:18;;;;;;;8.80;4.50;;;;;;;18.31;52.10;100225.28;104156;1264;96047;-65
2023/08/13 01:00:46;;;;;;;10.50;4.20;;;;;;;18.30;52.03;100223.08;104178;1260;138696;-65
2023/08/13 01:03:13;;;;;;;10.00;4.40;;;;;;;18.28;52.14;100227.55;104147;1260;107766;-65
2023/08/13 01:05:50;;;;;;;6.40;4.20;;;;;;;18.27;52.30;100222.86;102985;1261;98482;-65
2023/08/13 01:08:32;;;;;;;7.80;4.50;;;;;;;18.26;52.30;100224.71;102852;1265;107095;-65
2023/08/13 01:11:06;;;;;;;10.10;4.30;;;;;;;18.23;52.47;100222.79;102981;1261;97894;-65
2023/08/13 01:13:39;;;;;;;7.90;4.20;;;;;;;18.21;52.69;100219.59;103139;1261;137972;-65
2023/08/13 01:16:08;;;;;;;9.50;4.80;;;;;;;18.19;52.82;100215.51;102813;1259;107860;-64
2023/08/13 01:18:39;;;;;;;12.00;4.30;;;;;;;18.16;52.76;100212.54;103240;1260;137905;-65
2023/08/13 01:21:06;;;;;;;10.10;4.80;;;;;;;18.14;52.95;100213.75;102932;1264;108267;-65
2023/08/13 01:23:33;;;;;;;8.30;4.70;;;;;;;18.10;53.06;100214.30;102957;1260;97798;-65
2023/08/13 01:26:08;;;;;;;9.30;5.30;;;;;;;18.08;53.12;100214.42;102853;1261;138487;-65
2023/08/13 01:28:44;;;;;;;9.30;5.10;;;;;;;18.05;53.20;100213.94;102849;1260;108438;-65
2023/08/13 01:31:19;;;;;;;11.50;5.50;;;;;;;18.03;53.57;100212.48;102751;1261;138201;-65
2023/08/13 01:33:48;;;;;;;8.30;5.10;;;;;;;18.02;53.61;100211.48;103103;1263;107737;-65
2023/08/13 01:36:17;;;;;;;9.90;4.70;;;;;;;18.01;53.68;100206.77;102900;1261;138691;-65
2023/08/13 01:38:45;;;;;;;11.60;5.20;;;;;;;18.01;53.78;100206.60;103210;1261;110556;-66
2023/08/13 01:41:12;;;;;;;8.00;5.10;;;;;;;18.02;53.71;100205.18;102873;1264;107378;-65
2023/08/13 01:43:39;;;;;;;7.50;5.00;;;;;;;18.01;53.92;100203.98;102801;1263;138060;-65
2023/08/13 01:46:07;;;;;;;10.70;5.50;;;;;;;18.01;53.94;100204.48;102898;1257;108510;-65
2023/08/13 01:48:34;;;;;;;10.60;5.10;;;;;;;18.01;53.89;100200.48;102843;1261;138105;-65
2023/08/13 01:51:01;;;;;;;9.80;5.00;;;;;;;18.01;54.06;100198.86;102951;1260;112318;-65
2023/08/13 01:53:28;;;;;;;11.00;5.40;;;;;;;18.01;54.29;100197.45;104266;1259;107657;-66
2023/08/13 01:55:55;;;;;;;7.90;5.20;;;;;;;18.01;54.41;100196.75;104211;1260;137967;-66
2023/08/13 01:58:23;;;;;;;9.60;5.20;;;;;;;18.02;54.35;100194.41;102930;1264;1003210;-66
2023/08/13 02:04:20;;;;;;;15.00;5.70;;;;;;;18.04;54.83;100195.85;102511;1264;110284;-64
2023/08/13 02:06:47;;;;;;;11.50;5.30;;;;;;;18.05;54.80;100200.35;102503;1264;138793;-64
2023/08/13 02:09:14;;;;;;;11.00;5.60;;;;;;;18.05;54.69;100197.36;102702;1264;97830;-64
2023/08/13 02:11:41;;;;;;;8.50;5.40;;;;;;;18.06;54.86;100198.04;102665;1261;108380;-64
2023/08/13 02:14:08;;;;;;;8.30;5.50;;;;;;;18.06;54.90;100195.91;103363;1264;97793;-64
2023/08/13 02:16:35;;;;;;;9.40;5.50;;;;;;;18.06;54.93;100198.89;102674;1267;113872;-65
2023/08/13 02:19:03;;;;;;;16.30;6.00;;;;;;;18.06;55.18;100194.27;102616;1264;138047;-65
2023/08/13 02:21:30;;;;;;;15.30;5.60;;;;;;;18.06;55.23;100194.80;102713;1264;97839;-65
2023/08/13 02:23:57;;;;;;;12.30;5.90;;;;;;;18.07;55.33;100191.43;102592;1266;138165;-65
2023/08/13 02:26:24;;;;;;;10.60;5.90;;;;;;;18.07;55.24;100186.50;102711;1266;97863;-65
2023/08/13 02:28:51;;;;;;;8.20;5.90;;;;;;;18.07;55.28;100187.92;102605;1267;111236;-65
2023/08/13 02:31:18;;;;;;;10.30;5.80;;;;;;;18.07;55.45;100185.44;102514;1264;137887;-65
2023/08/13 02:33:46;;;;;;;11.50;5.90;;;;;;;18.07;55.46;100187.20;102630;1266;98093;-65
2023/08/13 02:36:13;;;;;;;10.30;5.50;;;;;;;18.07;55.52;100190.02;102545;1264;138024;-65
2023/08/13 02:38:40;;;;;;;10.10;5.90;;;;;;;18.06;55.55;100187.63;102627;1264;97809;-65
2023/08/13 02:41:07;;;;;;;11.90;5.40;;;;;;;18.05;55.46;100185.42;102667;1263;113015;-65
2023/08/13 02:43:52;;;;;;;13.10;5.70;;;;;;;18.03;55.64;100185.52;102600;1264;138184;-65
2023/08/13 02:46:19;;;;;;;10.70;5.90;;;;;;;18.00;55.61;100175.73;102777;1263;98154;-65
2023/08/13 02:48:46;;;;;;;13.90;6.10;;;;;;;17.98;55.65;100175.48;102548;1263;137853;-65
2023/08/13 02:51:13;;;;;;;11.30;6.00;;;;;;;17.96;55.71;100174.04;101907;1267;1015779;-65
2023/08/13 02:53:41;;;;;;;12.10;6.00;;;;;;;17.94;55.85;100177.48;102587;1264;112089;-65
2023/08/13 02:56:08;;;;;;;8.30;5.50;;;;;;;17.91;56.13;100172.79;102508;1264;137845;-65
2023/08/13 02:58:35;;;;;;;11.10;5.90;;;;;;;17.89;56.06;100171.52;102726;1263;97793;-64
2023/08/13 03:01:03;;;;;;;9.20;5.60;;;;;;;17.86;56.28;100168.52;102507;1264;138141;-65
2023/08/13 03:03:30;;;;;;;11.70;5.70;;;;;;;17.82;56.58;100170.18;102791;1260;97828;-65
2023/08/13 03:06:12;;;;;;;15.60;6.50;;;;;;;17.80;56.67;100164.88;102799;1259;138091;-65
2023/08/13 03:08:39;;;;;;;13.00;6.10;;;;;;;17.77;56.85;100165.05;104179;1260;107483;-65
2023/08/13 03:11:06;;;;;;;12.00;5.80;;;;;;;17.74;56.82;100163.80;102890;1264;98141;-65
2023/08/13 03:13:33;;;;;;;11.00;6.10;;;;;;;17.71;56.98;100164.52;102899;1260;137917;-65
2023/08/13 03:16:00;;;;;;;9.90;6.00;;;;;;;17.70;57.21;100162.69;102745;1263;97822;-65
2023/08/13 03:18:28;;;;;;;8.20;5.80;;;;;;;17.69;57.05;100166.45;102652;1260;137893;-66
2023/08/13 03:20:55;;;;;;;10.30;6.00;;;;;;;17.63;57.38;100167.50;102745;1261;108668;-65
2023/08/13 03:23:22;;;;;;;11.20;6.40;;;;;;;17.60;57.45;100165.59;102809;1260;97808;-65
2023/08/13 03:25:49;;;;;;;10.40;5.70;;;;;;;17.58;57.83;100165.30;102735;1264;137962;-65
2023/08/13 03:28:17;;;;;;;12.80;6.50;;;;;;;17.57;57.79;100162.08;102782;1261;97814;-65
2023/08/13 03:30:44;;;;;;;9.70;5.90;;;;;;;17.56;58.06;100163.55;102588;1260;138873;-65
2023/08/13 03:33:11;;;;;;;8.80;5.70;;;;;;;17.53;58.07;100170.04;102791;1264;109185;-65
2023/08/13 03:35:39;;;;;;;9.90;6.20;;;;;;;17.49;58.51;100173.09;103026;1261;97829;-64
2023/08/13 03:38:06;;;;;;;8.20;5.80;;;;;;;17.45;58.47;100172.32;102669;1261;138375;-64
2023/08/13 03:40:33;;;;;;;11.00;6.50;;;;;;;17.41;58.35;100170.38;102789;1260;98327;-64
2023/08/13 03:43:00;;;;;;;12.30;6.50;;;;;;;17.37;58.94;100170.45;102582;1260;139045;-64
2023/08/13 03:45:29;;;;;;;10.00;6.10;;;;;;;17.34;58.96;100168.76;102700;1264;110342;-68
2023/08/13 03:47:57;;;;;;;8.10;6.10;;;;;;;17.29;59.08;100157.44;102726;1260;139042;-65
2023/08/13 03:50:24;;;;;;;17.60;6.10;;;;;;;17.26;59.32;100158.75;102846;1263;108599;-65
2023/08/13 03:52:51;;;;;;;10.50;6.50;;;;;;;17.20;59.37;100155.17;102770;1266;97758;-64
2023/08/13 03:55:18;;;;;;;12.60;6.60;;;;;;;17.17;59.74;100158.02;102685;1260;138823;-64
2023/08/13 03:57:46;;;;;;;14.90;6.80;;;;;;;17.14;59.83;100162.23;102801;1260;107425;-64
2023/08/13 04:00:14;;;;;;;8.10;6.20;;;;;;;17.13;59.96;100160.93;102637;1260;139002;-64
2023/08/13 04:02:48;;;;;;;10.70;7.00;;;;;;;17.11;59.98;100157.14;102885;1259;109308;-64
2023/08/13 04:05:16;;;;;;;12.40;6.70;;;;;;;17.12;60.06;100159.40;103614;1258;97837;-65
2023/08/13 04:07:43;;;;;;;11.90;6.50;;;;;;;17.13;60.20;100157.55;102779;1263;139896;-64
2023/08/13 04:10:12;;;;;;;11.50;6.80;;;;;;;17.14;60.25;100156.64;103003;1260;107638;-64
2023/08/13 04:12:40;;;;;;;8.70;6.10;;;;;;;17.14;60.27;100153.60;102920;1257;138720;-64
2023/08/13 04:15:08;;;;;;;13.50;6.70;;;;;;;17.15;60.46;100152.85;103023;1257;106897;-64
2023/08/13 04:17:36;;;;;;;14.50;7.00;;;;;;;17.17;60.88;100152.56;103005;1258;97820;-64
2023/08/13 04:20:05;;;;;;;8.60;6.30;;;;;;;17.19;60.81;100153.13;102809;1257;139626;-65
2023/08/13 04:22:32;;;;;;;10.00;6.50;;;;;;;17.24;61.02;100157.61;104040;1257;107819;-65
2023/08/13 04:24:59;;;;;;;12.70;7.40;;;;;;;17.28;60.89;100147.66;102994;1257;138756;-65
2023/08/13 04:27:26;;;;;;;15.30;6.60;;;;;;;17.38;61.26;100150.42;102906;1259;108565;-64
2023/08/13 04:29:54;;;;;;;10.60;6.70;;;;;;;17.48;61.03;100143.95;102931;1261;138982;-65
2023/08/13 04:32:21;;;;;;;10.00;6.20;;;;;;;17.59;60.49;100145.41;103030;1258;111355;-64
2023/08/13 04:34:48;;;;;;;11.10;6.60;;;;;;;17.70;60.72;100146.69;103024;1257;108072;-64
2023/08/13 04:37:16;;;;;;;8.00;6.10;;;;;;;17.83;60.55;100148.83;103744;1257;139480;-65
2023/08/13 04:39:43;;;;;;;13.60;6.60;;;;;;;17.96;60.29;100148.67;103039;1257;107278;-64
2023/08/13 04:42:10;;;;;;;12.90;6.80;;;;;;;18.09;60.01;100147.48;102976;1257;139034;-65
2023/08/13 04:44:38;;;;;;;9.80;6.50;;;;;;;18.22;59.69;100143.31;103031;1260;112336;-65
2023/08/13 04:47:07;;;;;;;10.80;6.20;;;;;;;18.33;59.72;100143.16;103021;1257;108087;-65
2023/08/13 04:49:34;;;;;;;9.10;6.20;;;;;;;18.42;59.42;100138.11;103898;1258;138900;-63
2023/08/13 04:52:02;;;;;;;10.50;5.90;;;;;;;18.54;59.12;100150.33;103777;1258;107253;-65
2023/08/13 04:54:30;;;;;;;9.60;6.10;;;;;;;18.71;58.72;100156.62;102929;1257;138977;-65
2023/08/13 04:56:57;;;;;;;11.70;6.40;;;;;;;18.95;58.69;100154.32;102955;1258;110947;-65
2023/08/13 04:59:25;;;;;;;9.40;5.40;;;;;;;19.62;58.31;100151.58;103021;1257;107850;-65
2023/08/13 05:01:53;;;;;;;9.30;5.60;;;;;;;20.94;56.22;100154.54;102832;1259;137861;-65
2023/08/13 05:04:21;;;;;;;9.10;5.40;;;;;;;21.68;54.10;100150.00;102906;1259;109399;-65
2023/08/13 05:06:48;;;;;;;8.30;6.30;;;;;;;21.48;53.15;100150.50;102825;1263;137801;-65
2023/08/13 05:09:15;;;;;;;9.70;5.70;;;;;;;21.37;53.13;100146.28;102767;1259;111877;-65
2023/08/13 05:11:42;;;;;;;9.10;5.70;;;;;;;21.42;52.78;100144.50;102913;1259;108345;-65
2023/08/13 05:14:10;;;;;;;9.30;5.70;;;;;;;21.12;53.02;100140.59;102830;1259;97673;-65
2023/08/13 05:16:37;;;;;;;12.80;6.60;;;;;;;20.81;53.33;100137.29;102257;1258;1003010;-65
2023/08/13 05:19:05;;;;;;;8.40;5.70;;;;;;;20.58;53.85;100133.96;102804;1259;138389;-65
2023/08/13 05:21:31;;;;;;;8.50;6.00;;;;;;;20.40;54.25;100135.45;104253;1259;110846;-66
2023/08/13 05:23:58;;;;;;;9.20;5.90;;;;;;;20.73;54.82;100137.98;103754;1259;138721;-67
2023/08/13 05:26:26;;;;;;;12.60;5.90;;;;;;;21.80;53.34;100134.30;102825;1260;97750;-66
2023/08/13 05:28:53;;;;;;;8.50;5.50;;;;;;;22.91;51.96;100135.73;102792;1263;108773;-66
2023/08/13 05:31:20;;;;;;;12.00;6.30;;;;;;;23.59;49.75;100132.16;102794;1259;137945;-66
2023/08/13 05:33:48;;;;;;;13.00;6.20;;;;;;;23.63;49.20;100128.84;103016;1259;112209;-66
2023/08/13 05:36:15;;;;;;;9.60;5.80;;;;;;;23.64;48.85;100134.23;102773;1259;138470;-66
2023/08/13 05:38:42;;;;;;;8.00;4.90;;;;;;;25.03;48.01;100139.63;102973;1259;97805;-66
2023/08/13 05:41:09;;;;;;;14.30;5.70;;;;;;;27.05;46.04;100133.72;102861;1259;109616;-66
2023/08/13 05:43:36;;;;;;;7.60;5.10;;;;;;;28.73;43.18;100134.81;102822;1259;138011;-65
2023/08/13 05:46:03;;;;;;;9.20;5.10;;;;;;;29.79;40.95;100126.96;102908;1264;111975;-67
2023/08/13 05:48:30;;;;;;;10.70;5.60;;;;;;;30.11;38.60;100122.06;103285;1259;138760;-67
2023/08/13 05:50:57;;;;;;;9.70;4.90;;;;;;;29.44;38.33;100125.98;103543;1259;97968;-67
2023/08/13 05:53:24;;;;;;;10.90;5.40;;;;;;;28.48;38.96;100125.55;103006;1259;109553;-66
2023/08/13 05:55:52;;;;;;;8.40;5.10;;;;;;;27.62;39.76;100121.98;103070;1258;138333;-65
2023/08/13 05:58:19;;;;;;;9.60;5.40;;;;;;;26.87;40.63;100123.55;103001;1259;111793;-65
2023/08/13 06:00:46;;;;;;;9.60;5.60;;;;;;;26.29;41.52;100119.92;103069;1259;138327;-66
2023/08/13 06:03:14;;;;;;;12.00;5.40;;;;;;;25.97;42.34;100121.52;102905;1263;97817;-66
2023/08/13 06:05:41;;;;;;;9.70;5.30;;;;;;;26.01;42.91;100121.68;102936;1262;107406;-66
2023/08/13 06:08:10;;;;;;;7.60;5.50;;;;;;;26.29;42.71;100115.77;102989;1263;97839;-66
2023/08/13 06:10:37;;;;;;;10.20;5.80;;;;;;;26.65;42.49;100115.95;103386;1262;110812;-67
2023/08/13 06:13:04;;;;;;;6.00;4.90;;;;;;;26.79;41.96;100114.01;103544;1259;138264;-67
2023/08/13 06:15:31;;;;;;;9.00;5.10;;;;;;;26.62;41.99;100114.64;103012;1259;97900;-66
2023/08/13 06:17:58;;;;;;;9.50;5.50;;;;;;;26.34;42.18;100123.86;103434;1259;137836;-67
2023/08/13 06:20:25;;;;;;;11.20;5.30;;;;;;;26.60;43.10;100120.06;103241;1259;96698;-67
2023/08/13 06:22:52;;;;;;;9.70;5.10;;;;;;;28.12;41.74;100116.47;102913;1263;112009;-66
2023/08/13 06:25:19;;;;;;;7.80;5.20;;;;;;;28.49;40.88;100121.71;102950;1264;138036;-67
2023/08/13 06:27:46;;;;;;;9.50;4.60;;;;;;;28.64;40.48;100123.09;103604;1259;98089;-65
2023/08/13 06:30:13;;;;;;;9.60;5.00;;;;;;;28.91;39.53;100120.21;102792;1263;137869;-67
2023/08/13 06:32:40;;;;;;;7.20;5.20;;;;;;;28.81;39.25;100124.49;102898;1262;97920;-66
2023/08/13 06:35:09;;;;;;;9.40;5.10;;;;;;;28.65;39.63;100124.40;102967;1259;112104;-67
2023/08/13 06:37:36;;;;;;;7.30;5.00;;;;;;;28.62;39.61;100127.33;103224;1258;138234;-66
2023/08/13 06:40:21;;;;;;;7.60;4.80;;;;;;;28.52;39.62;100123.52;103176;1259;98384;-66
2023/08/13 06:42:48;;;;;;;14.10;5.50;;;;;;;28.60;39.87;100125.88;102829;1259;137715;-66
2023/08/13 06:45:15;;;;;;;7.20;4.60;;;;;;;29.44;39.24;100133.74;104314;1259;95994;-67
2023/08/13 06:47:43;;;;;;;7.60;5.00;;;;;;;29.69;38.51;100130.16;104293;1258;112246;-66
2023/08/13 06:50:13;;;;;;;11.60;5.00;;;;;;;29.70;38.75;100134.56;104293;1258;107141;-66
2023/08/13 06:52:40;;;;;;;8.40;4.90;;;;;;;29.95;38.42;100127.46;103433;1259;97768;-66
2023/08/13 06:55:08;;;;;;;8.00;5.10;;;;;;;29.95;37.88;100127.88;103106;1261;137701;-66
2023/08/13 06:57:37;;;;;;;8.70;4.60;;;;;;;29.70;37.82;100135.39;103152;1263;98143;-67
2023/08/13 07:00:06;;;;;;;6.70;4.60;;;;;;;29.32;37.89;100136.13;103073;1259;137866;-67
2023/08/13 07:02:33;;;;;;;7.40;4.70;;;;;;;28.96;38.42;100134.88;103410;1258;108636;-66
2023/08/13 07:05:03;;;;;;;8.10;4.60;;;;;;;28.68;38.66;100133.42;103782;1258;97847;-66
2023/08/13 07:07:33;;;;;;;8.30;4.80;;;;;;;28.48;39.18;100135.44;103258;1259;137659;-65
2023/08/13 07:10:04;;;;;;;10.60;4.70;;;;;;;28.51;39.22;100131.38;103531;1263;97889;-66
2023/08/13 07:12:32;;;;;;;7.60;4.70;;;;;;;28.57;39.48;100135.38;103974;1259;138769;-64
2023/08/13 07:15:03;;;;;;;5.90;4.40;;;;;;;29.30;39.28;100133.85;103066;1259;108636;-67
2023/08/13 07:17:31;;;;;;;10.40;4.40;;;;;;;30.53;38.44;100132.00;102999;1257;98493;-67
2023/08/13 07:19:58;;;;;;;6.80;4.50;;;;;;;32.28;36.63;100129.84;103049;1262;137906;-67
2023/08/13 07:22:27;;;;;;;6.30;4.40;;;;;;;34.11;35.34;100127.45;103027;1261;98423;-67
2023/08/13 07:24:58;;;;;;;7.90;4.70;;;;;;;35.21;33.76;100131.95;102882;1259;137878;-67
2023/08/13 07:27:26;;;;;;;7.00;4.00;;;;;;;35.98;32.36;100132.66;103112;1259;99950;-67
2023/08/13 07:29:54;;;;;;;10.80;4.20;;;;;;;37.06;31.02;100131.82;103116;1259;138325;-68
2023/08/13 07:32:24;;;;;;;5.10;4.10;;;;;;;38.04;29.82;100128.74;102907;1259;99389;-66
2023/08/13 07:34:51;;;;;;;5.70;3.50;;;;;;;38.62;28.68;100126.94;102963;1259;97813;-67
2023/08/13 07:37:19;;;;;;;7.90;3.70;;;;;;;39.16;28.05;100124.52;102893;1259;138263;-67
2023/08/13 07:39:46;;;;;;;6.10;3.80;;;;;;;40.01;27.52;100118.30;102708;1262;100256;-67
2023/08/13 07:42:13;;;;;;;10.80;3.60;;;;;;;40.95;26.58;100123.89;102978;1264;138031;-67
2023/08/13 07:44:40;;;;;;;7.30;3.50;;;;;;;41.65;25.46;100126.16;103142;1259;99930;-68
2023/08/13 07:47:07;;;;;;;5.10;3.50;;;;;;;42.12;24.67;100123.77;104213;1258;96382;-67
2023/08/13 07:49:34;;;;;;;7.40;3.10;;;;;;;42.58;24.28;100117.56;104200;1260;138042;-67
2023/08/13 07:52:01;;;;;;;8.40;3.30;;;;;;;43.06;23.52;100115.05;103289;1263;100204;-68
2023/08/13 07:54:29;;;;;;;4.40;3.00;;;;;;;43.51;23.07;100114.00;102878;1259;138053;-69
2023/08/13 07:56:56;;;;;;;7.50;2.90;;;;;;;43.73;22.37;100113.99;103886;1259;100073;-67
2023/08/13 07:59:23;;;;;;;5.10;2.70;;;;;;;43.79;21.77;100117.02;103026;1259;97804;-67
2023/08/13 08:01:51;;;;;;;5.40;3.20;;;;;;;43.77;21.61;100119.77;103463;1258;137717;-67
2023/08/13 08:04:18;;;;;;;4.10;2.90;;;;;;;43.92;21.54;100126.02;102961;1259;99836;-68
2023/08/13 08:06:45;;;;;;;5.60;2.90;;;;;;;44.04;21.31;100125.88;102920;1259;137890;-68
2023/08/13 08:09:12;;;;;;;3.90;3.00;;;;;;;44.00;21.29;100124.70;102937;1259;100619;-68
2023/08/13 08:11:39;;;;;;;5.40;3.30;;;;;;;44.07;21.33;100121.98;102961;1259;97795;-68
2023/08/13 08:14:06;;;;;;;7.40;3.00;;;;;;;44.27;21.06;100120.96;103322;1259;137851;-69
2023/08/13 08:16:34;;;;;;;4.80;2.90;;;;;;;44.51;21.15;100122.62;103092;1262;100034;-68
2023/08/13 08:19:01;;;;;;;6.20;2.90;;;;;;;44.76;20.68;100128.27;103413;1259;138704;-67
2023/08/13 08:21:29;;;;;;;5.50;2.80;;;;;;;44.61;20.15;100125.44;103008;1259;100658;-67
2023/08/13 08:23:56;;;;;;;5.80;2.90;;;;;;;44.64;20.14;100125.64;102749;1259;138050;-67
2023/08/13 08:26:23;;;;;;;6.10;2.90;;;;;;;44.31;20.04;100121.52;102953;1259;103313;-68
2023/08/13 08:28:51;;;;;;;7.30;2.90;;;;;;;44.02;20.19;100121.20;103297;1259;99979;-67
2023/08/13 08:31:18;;;;;;;5.90;3.10;;;;;;;43.70;20.60;100119.20;103897;1259;138197;-68
2023/08/13 08:33:45;;;;;;;3.30;2.70;;;;;;;43.70;20.63;100121.67;103472;1262;100190;-68
2023/08/13 08:36:12;;;;;;;6.00;3.10;;;;;;;43.42;20.32;100120.39;102797;1262;138180;-67
2023/08/13 08:38:40;;;;;;;6.20;3.60;;;;;;;43.31;20.81;100118.77;103273;1259;313130;-68
2023/08/13 08:41:08;;;;;;;4.30;3.20;;;;;;;43.28;20.91;100116.42;103236;1259;100114;-67
2023/08/13 08:43:38;;;;;;;6.10;3.50;;;;;;;43.23;21.03;100116.23;104218;1259;138434;-68
2023/08/13 08:46:07;;;;;;;7.00;3.00;;;;;;;43.19;20.74;100124.56;103032;1259;100742;-67
2023/08/13 08:48:34;;;;;;;4.50;3.00;;;;;;;42.87;20.78;100127.55;103434;1259;137828;-68
2023/08/13 08:51:01;;;;;;;3.90;3.20;;;;;;;42.34;20.87;100127.55;103227;1259;103425;-69
2023/08/13 08:53:29;;;;;;;6.70;3.30;;;;;;;41.71;21.26;100130.17;102781;1259;99138;-67
2023/08/13 08:55:56;;;;;;;9.40;3.80;;;;;;;41.26;21.89;100127.20;103575;1259;137781;-68
2023/08/13 08:58:23;;;;;;;5.00;3.40;;;;;;;41.22;22.30;100128.21;103000;1259;99357;-67
2023/08/13 09:00:56;;;;;;;14.30;5.00;;;;;;;41.34;22.41;100129.00;102815;1259;137624;-67
2023/08/13 09:03:23;;;;;;;12.20;4.20;;;;;;;41.37;22.45;100124.92;103913;1259;104130;-66
2023/08/13 09:05:51;;;;;;;8.30;3.20;;;;;;;41.25;22.34;100124.94;102982;1259;139026;-75
2023/08/13 09:08:19;;;;;;;5.10;3.10;;;;;;;41.13;22.67;100121.52;103292;1259;97894;-75
2023/08/13 09:10:46;;;;;;;6.20;3.50;;;;;;;41.23;22.55;100120.36;104101;1259;100555;-77
2023/08/13 09:13:13;;;;;;;5.40;3.20;;;;;;;41.43;22.48;100121.62;102810;1263;137936;-72
2023/08/13 09:15:48;;;;;;;7.50;3.30;;;;;;;41.65;22.54;100126.13;102675;1264;102597;-74
2023/08/13 09:18:15;;;;;;;9.70;3.70;;;;;;;41.46;22.09;100127.63;103321;1259;138025;-73
2023/08/13 09:20:47;;;;;;;5.10;3.30;;;;;;;41.23;22.60;100121.17;102835;1264;97809;-73
2023/08/13 09:23:22;;;;;;;6.40;3.60;;;;;;;41.34;22.62;100121.07;102806;1264;99122;-71
2023/08/13 09:25:51;;;;;;;;;;;;;;;41.31;22.59;100117.75;103011;1259;138470;-73
2023/08/13 09:28:18;;;;;;;8.40;4.00;;;;;;;41.36;22.84;100117.59;103776;1259;103169;-74
2023/08/13 09:30:46;;;;;;;4.90;3.50;;;;;;;41.51;22.80;100118.48;103986;1259;137766;-73
2023/08/13 09:33:16;;;;;;;8.20;3.50;;;;;;;41.45;22.54;100111.84;102736;1259;97855;-77
2023/08/13 09:35:43;;;;;;;8.00;3.50;;;;;;;41.33;22.83;100113.48;103566;1262;99524;-72
2023/08/13 09:38:10;;;;;;;6.00;3.40;;;;;;;41.57;22.73;100112.36;103596;1259;137614;-71
2023/08/13 09:40:38;;;;;;;7.30;3.30;;;;;;;41.88;22.66;100112.46;103474;1259;103660;-71
2023/08/13 09:43:06;;;;;;;4.40;3.30;;;;;;;42.28;22.70;100110.89;103487;1259;138260;-73
2023/08/13 09:45:35;;;;;;;6.70;3.70;;;;;;;42.64;22.32;100109.42;102689;1259;97916;-72
2023/08/13 09:48:06;;;;;;;5.80;3.40;;;;;;;42.78;22.01;100113.49;102696;1259;137769;-71
2023/08/13 09:50:39;;;;;;;6.00;3.10;;;;;;;42.83;22.04;100111.42;102852;1260;97710;-72
2023/08/13 09:53:14;;;;;;;5.20;3.30;;;;;;;42.91;22.05;100109.70;102830;1264;103530;-72
2023/08/13 09:55:49;;;;;;;8.40;3.20;;;;;;;42.74;21.71;100106.73;102612;1259;137783;-72
2023/08/13 09:58:18;;;;;;;7.90;2.90;;;;;;;42.33;21.81;100110.61;102675;1259;97848;-73
2023/08/13 10:00:48;;;;;;;5.10;3.10;;;;;;;42.05;21.93;100114.17;103101;1259;137746;-73
2023/08/13 10:03:17;;;;;;;9.30;3.50;;;;;;;41.89;22.28;100115.32;103236;1259;97909;-72
2023/08/13 10:05:45;;;;;;;9.00;3.60;;;;;;;41.74;22.51;100117.57;102725;1259;103692;-72
2023/08/13 10:08:13;;;;;;;7.50;3.30;;;;;;;41.52;22.40;100117.19;102712;1264;100588;-72
2023/08/13 10:10:43;;;;;;;5.50;3.10;;;;;;;41.22;22.69;100120.34;102802;1259;97816;-72
2023/08/13 10:13:11;;;;;;;7.90;3.60;;;;;;;40.89;22.77;100115.69;102682;1259;137870;-73
2023/08/13 10:15:39;;;;;;;9.20;3.40;;;;;;;40.51;23.05;100117.24;102737;1259;97908;-72
2023/08/13 10:18:08;;;;;;;7.20;3.60;;;;;;;40.36;23.59;100118.76;102573;1259;138405;-73
2023/08/13 10:20:35;;;;;;;5.30;3.30;;;;;;;40.29;23.76;100122.69;102710;1259;99008;-72
2023/08/13 10:23:11;;;;;;;3.80;3.30;;;;;;;39.76;23.95;100123.27;102707;1259;97795;-71
2023/08/13 10:25:41;;;;;;;7.00;3.30;;;;;;;39.39;24.58;100117.77;102637;1259;138320;-71
2023/08/13 10:28:25;;;;;;;5.70;3.60;;;;;;;39.35;24.90;100119.49;102687;1259;97814;-73
2023/08/13 10:31:30;;;;;;;4.30;3.30;;;;;;;39.41;25.00;100119.38;102669;1263;139265;-72
2023/08/13 10:34:11;;;;;;;7.10;3.20;;;;;;;39.35;25.04;100120.84;102742;1263;100057;-73
2023/08/13 10:36:52;;;;;;;4.70;2.80;;;;;;;39.21;24.74;100117.21;102675;1263;137818;-71
2023/08/13 10:39:36;;;;;;;5.90;3.90;;;;;;;38.87;25.24;100117.91;102788;1259;100012;-73
2023/08/13 10:42:04;;;;;;;5.10;2.90;;;;;;;38.75;25.57;100116.20;102637;1263;137968;-71
2023/08/13 10:44:33;;;;;;;7.50;3.30;;;;;;;38.77;25.77;100115.31;102794;1263;103985;-71
2023/08/13 10:47:02;;;;;;;4.60;2.90;;;;;;;38.70;25.46;100112.77;102812;1259;99930;-72
2023/08/13 10:49:30;;;;;;;6.60;3.30;;;;;;;38.48;25.51;100116.38;102635;1264;137677;-72
2023/08/13 10:52:02;;;;;;;4.40;3.00;;;;;;;38.30;25.55;100117.55;102725;1259;101037;-73
2023/08/13 10:54:30;;;;;;;4.10;3.10;;;;;;;38.19;25.73;100119.09;102714;1263;138104;-70
2023/08/13 10:56:58;;;;;;;5.90;3.00;;;;;;;38.14;25.95;100120.41;102843;1259;102551;-73
2023/08/13 10:59:32;;;;;;;4.70;3.00;;;;;;;38.15;25.98;100121.61;102710;1259;100070;-71
2023/08/13 11:02:20;;;;;;;6.00;3.00;;;;;;;38.06;26.07;100124.55;102693;1259;137875;-74
2023/08/13 11:04:50;;;;;;;7.70;3.10;;;;;;;37.85;26.50;100130.79;102682;1264;108058;-72
2023/08/13 11:07:17;;;;;;;5.20;3.20;;;;;;;37.84;26.35;100123.68;102671;1259;137952;-72
2023/08/13 11:09:44;;;;;;;4.60;3.00;;;;;;;37.79;26.67;100122.80;102779;1264;103570;-74
2023/08/13 11:12:12;;;;;;;6.00;3.00;;;;;;;37.72;26.77;100122.59;102684;1259;138347;-75
2023/08/13 11:14:41;;;;;;;5.90;3.00;;;;;;;37.56;26.67;100125.38;102951;1260;97810;-73
2023/08/13 11:17:08;;;;;;;5.70;3.30;;;;;;;37.40;26.99;100121.59;102882;1262;98716;-74
2023/08/13 11:19:35;;;;;;;6.70;3.40;;;;;;;37.41;27.09;100120.70;102768;1264;139195;-74